createdAt,value
2022-09-17T00:01:49.896Z,75.67
2022-09-17T00:04:17.839Z,76.05
2022-09-17T00:06:46.019Z,75.82
2022-09-17T00:09:13.849Z,75.87
2022-09-17T00:11:45.516Z,75.82
2022-09-17T00:14:22.621Z,75.68
2022-09-17T00:16:50.500Z,74.91
2022-09-17T00:19:22.830Z,75.40
2022-09-17T00:21:54.259Z,75.24
2022-09-17T00:24:22.998Z,75.42
2022-09-17T00:26:55.057Z,75.54
2022-09-17T00:29:29.143Z,75.38
2022-09-17T00:31:57.118Z,75.61
2022-09-17T00:34:25.003Z,75.00
2022-09-17T00:36:52.789Z,75.11
2022-09-17T00:39:20.718Z,76.12
2022-09-17T00:41:51.399Z,75.77
2022-09-17T00:44:48.262Z,75.68
2022-09-17T00:47:23.324Z,76.06
2022-09-17T00:49:57.856Z,76.43
2022-09-17T00:52:31.067Z,76.05
2022-09-17T00:55:10.118Z,75.87
2022-09-17T00:57:38.189Z,76.06
2022-09-17T01:00:09.311Z,75.46
2022-09-17T01:02:37.602Z,75.60
2022-09-17T01:05:09.587Z,75.61
2022-09-17T01:07:52.325Z,76.19
2022-09-17T01:10:35.185Z,75.64
2022-09-17T01:13:11.967Z,75.69
2022-09-17T01:15:45.630Z,75.85
2022-09-17T01:18:42.120Z,75.84
2022-09-17T01:21:35.372Z,76.05
2022-09-17T01:24:44.261Z,75.32
2022-09-17T01:27:45.553Z,76.10
2022-09-17T01:30:42.197Z,76.59
2022-09-17T01:33:16.524Z,76.40
2022-09-17T01:35:48.589Z,79.12
2022-09-17T01:38:28.803Z,77.13
2022-09-17T01:41:33.158Z,76.90
2022-09-17T01:44:11.446Z,76.24
2022-09-17T01:46:44.971Z,76.45
2022-09-17T01:49:16.566Z,76.03
2022-09-17T01:51:50.716Z,76.44
2022-09-17T01:54:24.044Z,76.60
2022-09-17T01:56:57.228Z,76.58
2022-09-17T01:59:31.453Z,76.33
2022-09-17T02:02:08.290Z,76.36
2022-09-17T02:04:39.535Z,77.04
2022-09-17T02:07:10.598Z,76.36
2022-09-17T02:09:42.794Z,76.74
2022-09-17T02:12:14.941Z,76.26
2022-09-17T02:14:49.735Z,76.00
2022-09-17T02:17:25.567Z,75.76
2022-09-17T02:19:57.685Z,76.38
2022-09-17T02:22:29.348Z,76.41
2022-09-17T02:25:10.824Z,76.19
2022-09-17T02:27:46.954Z,75.64
2022-09-17T02:30:17.911Z,76.17
2022-09-17T02:32:47.671Z,75.51
2022-09-17T02:35:18.132Z,75.65
2022-09-17T02:37:46.436Z,75.88
2022-09-17T02:40:19.026Z,75.80
2022-09-17T02:43:12.301Z,75.95
2022-09-17T02:45:53.293Z,76.23
2022-09-17T02:48:49.291Z,77.53
2022-09-17T02:51:34.060Z,76.97
2022-09-17T02:54:19.372Z,76.00
2022-09-17T02:56:55.902Z,76.57
2022-09-17T02:59:30.656Z,76.30
2022-09-17T03:02:04.301Z,76.18
2022-09-17T03:04:38.181Z,76.59
2022-09-17T03:07:09.010Z,77.15
2022-09-17T03:09:37.262Z,76.94
2022-09-17T03:12:05.610Z,76.72
2022-09-17T03:14:35.866Z,76.84
2022-09-17T03:17:20.691Z,76.95
2022-09-17T03:19:53.655Z,77.41
2022-09-17T03:22:21.534Z,77.90
2022-09-17T03:24:50.252Z,77.63
2022-09-17T03:27:18.126Z,78.28
2022-09-17T03:29:53.770Z,77.70
2022-09-17T03:32:21.573Z,78.18
2022-09-17T03:34:51.318Z,77.73
2022-09-17T03:37:22.945Z,77.35
2022-09-17T03:40:18.896Z,77.40
2022-09-17T03:42:57.122Z,77.51
2022-09-17T03:45:24.907Z,77.46
2022-09-17T03:47:52.564Z,77.38
2022-09-17T03:50:20.339Z,77.08
2022-09-17T03:52:52.535Z,76.35
2022-09-17T03:55:38.963Z,76.76
2022-09-17T03:58:07.295Z,77.25
2022-09-17T04:00:37.220Z,76.75
2022-09-17T04:03:05.355Z,76.93
2022-09-17T04:05:36.027Z,76.80
2022-09-17T04:08:13.053Z,76.68
2022-09-17T04:10:40.957Z,76.54
2022-09-17T04:13:08.990Z,77.14
2022-09-17T04:15:36.941Z,76.60
2022-09-17T04:18:05.026Z,76.77
2022-09-17T04:20:35.732Z,76.76
2022-09-17T04:23:07.167Z,76.99
2022-09-17T04:25:35.347Z,76.57
2022-09-17T04:28:10.502Z,77.25
2022-09-17T04:30:38.541Z,76.54
2022-09-17T04:33:06.680Z,76.23
2022-09-17T04:35:34.541Z,76.05
2022-09-17T04:38:18.587Z,75.94
2022-09-17T04:40:48.453Z,76.49
2022-09-17T04:43:16.208Z,76.81
2022-09-17T04:45:47.125Z,76.05
2022-09-17T04:48:14.953Z,76.40
2022-09-17T04:50:42.745Z,77.30
2022-09-17T04:53:19.926Z,77.29
2022-09-17T04:55:48.344Z,76.60
2022-09-17T04:58:16.193Z,76.96
2022-09-17T05:00:44.351Z,76.50
2022-09-17T05:03:12.264Z,76.72
2022-09-17T05:05:42.608Z,76.27
2022-09-17T05:08:11.873Z,76.64
2022-09-17T05:10:39.662Z,76.20
2022-09-17T05:13:15.018Z,77.08
2022-09-17T05:15:42.789Z,76.84
2022-09-17T05:18:35.585Z,76.75
2022-09-17T05:21:17.857Z,76.48
2022-09-17T05:23:47.921Z,76.56
2022-09-17T05:26:17.940Z,76.25
2022-09-17T05:28:45.691Z,76.04
2022-09-17T05:31:15.971Z,77.05
2022-09-17T05:33:43.811Z,76.42
2022-09-17T05:36:15.391Z,76.52
2022-09-17T05:38:43.254Z,76.64
2022-09-17T05:41:20.294Z,76.42
2022-09-17T05:43:48.031Z,76.71
2022-09-17T05:46:16.370Z,76.70
2022-09-17T05:48:44.582Z,75.96
2022-09-17T05:51:12.706Z,76.06
2022-09-17T05:53:40.617Z,75.28
2022-09-17T05:56:09.374Z,75.75
2022-09-17T05:58:38.486Z,75.74
2022-09-17T06:01:06.544Z,75.40
2022-09-17T06:03:34.395Z,75.66
2022-09-17T06:06:02.400Z,75.45
2022-09-17T06:08:30.840Z,75.54
2022-09-17T06:11:02.487Z,75.10
2022-09-17T06:13:30.917Z,75.30
2022-09-17T06:16:00.287Z,74.74
2022-09-17T06:18:29.259Z,74.81
2022-09-17T06:20:58.318Z,74.70
2022-09-17T06:23:27.047Z,74.60
2022-09-17T06:25:56.826Z,74.87
2022-09-17T06:28:25.247Z,75.46
2022-09-17T06:35:13.533Z,75.67
2022-09-17T06:37:41.430Z,75.69
2022-09-17T06:40:10.587Z,75.22
2022-09-17T06:42:38.577Z,75.02
2022-09-17T06:45:11.065Z,75.08
2022-09-17T06:47:41.147Z,75.04
2022-09-17T06:50:09.426Z,74.68
2022-09-17T06:52:38.702Z,74.20
2022-09-17T06:55:07.129Z,73.70
2022-09-17T06:57:41.112Z,73.43
2022-09-17T07:00:10.442Z,73.18
2022-09-17T07:02:38.199Z,72.37
2022-09-17T07:05:07.053Z,72.06
2022-09-17T07:07:39.243Z,71.90
2022-09-17T07:10:08.117Z,72.33
2022-09-17T07:12:42.914Z,72.42
2022-09-17T07:15:13.804Z,72.71
2022-09-17T07:17:45.698Z,73.04
2022-09-17T07:20:19.898Z,73.93
2022-09-17T07:22:59.015Z,73.20
2022-09-17T07:25:27.446Z,73.72
2022-09-17T07:27:55.341Z,73.50
2022-09-17T07:30:23.543Z,73.13
2022-09-17T07:32:51.347Z,73.55
2022-09-17T07:35:19.240Z,72.62
2022-09-17T07:37:47.492Z,72.48
2022-09-17T07:40:16.794Z,72.53
2022-09-17T07:42:44.653Z,71.81
2022-09-17T07:45:12.381Z,72.06
2022-09-17T07:47:41.446Z,71.55
2022-09-17T07:50:10.535Z,71.61
2022-09-17T07:52:38.289Z,71.03
2022-09-17T07:55:07.430Z,71.46
2022-09-17T07:57:36.766Z,71.24
2022-09-17T08:00:05.689Z,71.35
2022-09-17T08:02:39.397Z,70.50
2022-09-17T08:05:07.739Z,70.49
2022-09-17T08:07:35.520Z,70.64
2022-09-17T08:10:03.512Z,70.43
2022-09-17T08:12:31.361Z,70.73
2022-09-17T08:15:00.642Z,70.25
2022-09-17T08:17:28.531Z,70.38
2022-09-17T08:19:56.344Z,70.34
2022-09-17T08:22:24.272Z,70.00
2022-09-17T08:24:52.118Z,69.81
2022-09-17T08:27:19.898Z,69.41
2022-09-17T08:29:47.690Z,69.08
2022-09-17T08:32:16.931Z,68.74
2022-09-17T08:34:44.903Z,68.35
2022-09-17T08:37:12.674Z,68.14
2022-09-17T08:39:40.471Z,67.97
2022-09-17T08:42:14.067Z,67.83
2022-09-17T08:44:46.052Z,67.78
2022-09-17T08:47:22.314Z,67.62
2022-09-17T08:49:53.888Z,67.34
2022-09-17T08:52:43.068Z,67.16
2022-09-17T08:55:24.667Z,67.24
2022-09-17T08:58:04.167Z,66.61
2022-09-17T09:00:41.942Z,66.13
2022-09-17T09:03:23.052Z,66.23
2022-09-17T09:05:53.468Z,66.12
2022-09-17T09:08:30.414Z,66.47
2022-09-17T09:11:00.943Z,66.63
2022-09-17T09:13:32.327Z,66.34
2022-09-17T09:16:01.965Z,66.62
2022-09-17T09:18:36.354Z,66.53
2022-09-17T09:21:19.308Z,65.95
2022-09-17T09:23:54.204Z,65.68
2022-09-17T09:26:23.651Z,65.94
2022-09-17T09:29:15.852Z,66.01
2022-09-17T09:32:15.565Z,65.30
2022-09-17T09:34:46.707Z,65.13
2022-09-17T09:37:21.148Z,64.63
2022-09-17T09:39:52.018Z,63.52
2022-09-17T09:42:29.174Z,62.91
2022-09-17T09:45:04.707Z,62.70
2022-09-17T09:47:46.743Z,62.66
2022-09-17T09:51:01.683Z,60.82
2022-09-17T09:53:33.128Z,62.57
2022-09-17T09:56:25.118Z,62.89
2022-09-17T09:58:53.113Z,63.21
2022-09-17T10:01:23.039Z,63.78
2022-09-17T10:03:54.150Z,63.10
2022-09-17T10:06:25.225Z,63.27
2022-09-17T10:09:13.897Z,63.14
2022-09-17T10:11:42.510Z,63.26
2022-09-17T10:14:25.570Z,62.60
2022-09-17T10:17:19.485Z,60.28
2022-09-17T10:19:48.416Z,61.98
2022-09-17T10:22:27.019Z,61.96
2022-09-17T10:24:56.907Z,62.38
2022-09-17T10:27:26.551Z,62.16
2022-09-17T10:30:17.121Z,60.83
2022-09-17T10:32:45.462Z,61.72
2022-09-17T10:35:28.763Z,61.18
2022-09-17T10:37:58.029Z,61.85
2022-09-17T10:40:31.743Z,61.48
2022-09-17T10:43:24.573Z,57.30
2022-09-17T10:45:59.839Z,59.04
2022-09-17T10:48:31.983Z,59.68
2022-09-17T10:51:02.969Z,60.19
2022-09-17T10:53:32.221Z,60.45
2022-09-17T10:56:11.325Z,60.02
2022-09-17T10:58:55.863Z,60.37
2022-09-17T11:01:41.666Z,59.82
2022-09-17T11:04:25.961Z,59.30
2022-09-17T11:07:15.318Z,59.75
2022-09-17T11:09:54.496Z,60.61
2022-09-17T11:12:33.492Z,57.55
2022-09-17T11:15:08.653Z,61.23
2022-09-17T11:18:02.552Z,60.48
2022-09-17T11:20:48.784Z,59.57
2022-09-17T11:23:30.553Z,59.61
2022-09-17T11:26:02.392Z,59.92
2022-09-17T11:28:45.408Z,60.14
2022-09-17T11:31:26.909Z,60.10
2022-09-17T11:34:24.792Z,60.81
2022-09-17T11:36:59.722Z,61.33
2022-09-17T11:39:37.845Z,61.16
2022-09-17T11:42:11.772Z,61.66
2022-09-17T11:44:45.714Z,61.26
2022-09-17T11:47:17.845Z,61.36
2022-09-17T11:49:50.438Z,61.46
2022-09-17T11:52:23.918Z,61.43
2022-09-17T11:54:57.260Z,61.77
2022-09-17T11:57:32.948Z,61.31
2022-09-17T12:00:05.993Z,60.44
2022-09-17T12:02:49.216Z,60.12
2022-09-17T12:05:22.105Z,60.25
2022-09-17T12:07:57.701Z,59.41
2022-09-17T12:10:38.407Z,59.72
2022-09-17T12:13:28.386Z,61.35
2022-09-17T12:16:08.953Z,64.05
2022-09-17T12:18:48.776Z,65.23
2022-09-17T12:21:22.304Z,65.79
2022-09-17T12:23:54.138Z,66.27
2022-09-17T12:26:57.254Z,67.75
2022-09-17T12:29:49.035Z,68.55
2022-09-17T12:32:51.737Z,69.69
2022-09-17T12:36:02.368Z,69.75
2022-09-17T12:38:48.943Z,70.01
2022-09-17T12:41:21.471Z,69.72
2022-09-17T12:44:17.143Z,69.40
2022-09-17T12:47:04.028Z,69.04
2022-09-17T12:49:58.394Z,70.57
2022-09-17T12:52:38.073Z,70.47
2022-09-17T12:55:41.490Z,70.67
2022-09-17T12:58:24.554Z,70.78
2022-09-17T13:01:00.465Z,71.43
2022-09-17T13:03:34.614Z,71.15
2022-09-17T13:06:42.110Z,71.78
2022-09-17T13:09:54.792Z,71.30
2022-09-17T13:12:34.510Z,70.58
2022-09-17T13:15:21.998Z,70.19
2022-09-17T13:18:13.214Z,69.39
2022-09-17T13:21:05.542Z,69.00
2022-09-17T13:23:41.386Z,69.32
2022-09-17T13:26:10.509Z,69.29
2022-09-17T13:28:50.605Z,69.50
2022-09-17T13:31:23.417Z,69.37
2022-09-17T13:33:59.554Z,69.60
2022-09-17T13:36:44.486Z,69.89
2022-09-17T13:39:28.565Z,70.21
2022-09-17T13:42:03.911Z,70.07
2022-09-17T13:44:31.906Z,70.55
2022-09-17T13:47:17.102Z,70.72
2022-09-17T13:49:53.360Z,71.07
2022-09-17T13:52:35.797Z,71.63
2022-09-17T13:55:04.507Z,71.37
2022-09-17T13:57:35.416Z,71.45
2022-09-17T14:00:03.558Z,70.98
2022-09-17T14:02:39.675Z,70.78
2022-09-17T14:05:40.647Z,70.70
2022-09-17T14:08:31.611Z,70.96
2022-09-17T14:11:26.264Z,71.10
2022-09-17T14:13:55.169Z,70.96
2022-09-17T14:16:47.655Z,70.78
2022-09-17T14:19:28.557Z,70.84
2022-09-17T14:22:02.436Z,70.03
2022-09-17T14:24:37.635Z,70.38
2022-09-17T14:27:14.448Z,70.25
2022-09-17T14:30:00.400Z,70.81
2022-09-17T14:32:32.343Z,70.87
2022-09-17T14:35:05.103Z,71.09
2022-09-17T14:37:34.783Z,70.42
2022-09-17T14:40:12.610Z,70.56
2022-09-17T14:42:48.455Z,70.22
2022-09-17T14:45:20.608Z,69.50
2022-09-17T14:47:48.422Z,69.45
2022-09-17T14:50:22.615Z,69.47
2022-09-17T14:52:50.790Z,71.50
2022-09-17T14:55:22.064Z,70.41
2022-09-17T14:57:54.533Z,70.45
2022-09-17T15:00:25.943Z,70.38
2022-09-17T15:02:59.477Z,70.45
2022-09-17T15:05:31.660Z,70.83
2022-09-17T15:08:09.629Z,71.01
2022-09-17T15:10:48.024Z,70.76
2022-09-17T15:13:19.363Z,71.20
2022-09-17T15:16:17.660Z,71.42
2022-09-17T15:18:50.631Z,71.44
2022-09-17T15:21:30.231Z,71.19
2022-09-17T15:24:19.258Z,71.32
2022-09-17T15:26:51.768Z,71.54
2022-09-17T15:29:24.285Z,71.88
2022-09-17T15:31:52.308Z,72.05
2022-09-17T15:34:20.176Z,72.14
2022-09-17T15:37:07.322Z,73.22
2022-09-17T15:39:45.847Z,72.84
2022-09-17T15:42:22.806Z,72.68
2022-09-17T15:44:51.332Z,72.47
2022-09-17T15:47:51.702Z,72.29
2022-09-17T15:50:21.663Z,70.93
2022-09-17T15:52:50.315Z,70.91
2022-09-17T15:55:35.727Z,70.91
2022-09-17T15:58:20.328Z,71.15
2022-09-17T16:00:48.663Z,73.05
2022-09-17T16:04:05.993Z,72.18
2022-09-17T16:06:55.997Z,71.44
2022-09-17T16:09:53.252Z,71.27
2022-09-17T16:12:26.846Z,71.67
2022-09-17T16:14:58.284Z,71.49
2022-09-17T16:17:32.998Z,71.73
2022-09-17T16:20:06.136Z,71.78
2022-09-17T16:22:34.862Z,71.68
2022-09-17T16:25:06.707Z,72.21
2022-09-17T16:27:40.657Z,72.00
2022-09-17T16:30:16.719Z,72.41
2022-09-17T16:32:44.927Z,72.71
2022-09-17T16:35:17.416Z,73.00
2022-09-17T16:37:45.988Z,72.97
2022-09-17T16:40:14.986Z,73.01
2022-09-17T16:42:42.823Z,72.88
2022-09-17T16:45:12.617Z,73.23
2022-09-17T16:47:43.754Z,73.10
2022-09-17T16:50:14.110Z,73.40
2022-09-17T16:52:48.350Z,73.41
2022-09-17T16:55:18.457Z,74.70
2022-09-17T16:57:47.010Z,73.63
2022-09-17T17:00:19.695Z,73.83
2022-09-17T17:02:54.058Z,73.31
2022-09-17T17:05:22.086Z,74.11
2022-09-17T17:07:56.621Z,73.74
2022-09-17T17:10:27.456Z,73.56
2022-09-17T17:12:59.001Z,73.74
2022-09-17T17:15:28.322Z,73.62
2022-09-17T17:18:02.318Z,73.70
2022-09-17T17:20:31.985Z,73.44
2022-09-17T17:23:03.703Z,74.01
2022-09-17T17:25:32.380Z,73.59
2022-09-17T17:28:09.418Z,73.65
2022-09-17T17:30:48.484Z,73.15
2022-09-17T17:33:16.346Z,73.50
2022-09-17T17:35:45.470Z,72.40
2022-09-17T17:38:15.375Z,72.66
2022-09-17T17:40:45.503Z,73.02
2022-09-17T17:43:13.880Z,72.94
2022-09-17T17:45:58.072Z,73.16
2022-09-17T17:48:25.998Z,73.54
2022-09-17T17:50:56.825Z,73.37
2022-09-17T17:53:24.858Z,73.80
2022-09-17T17:56:00.197Z,73.26
2022-09-17T17:58:28.268Z,73.66
2022-09-17T18:00:56.715Z,73.88
2022-09-17T18:03:26.512Z,73.44
2022-09-17T18:05:56.459Z,73.84
2022-09-17T18:08:24.649Z,73.56
2022-09-17T18:10:53.964Z,73.58
2022-09-17T18:13:22.352Z,73.76
2022-09-17T18:15:55.463Z,74.01
2022-09-17T18:18:26.145Z,74.21
2022-09-17T18:20:55.745Z,74.13
2022-09-17T18:23:23.745Z,74.38
2022-09-17T18:25:55.855Z,73.90
2022-09-17T18:28:31.911Z,73.98
2022-09-17T18:31:05.616Z,74.16
2022-09-17T18:33:35.992Z,74.11
2022-09-17T18:36:06.019Z,74.35
2022-09-17T18:38:35.398Z,74.07
2022-09-17T18:41:05.718Z,74.75
2022-09-17T18:43:34.496Z,74.32
2022-09-17T18:46:08.149Z,74.71
2022-09-17T18:48:37.770Z,74.45
2022-09-17T18:51:07.293Z,74.24
2022-09-17T18:53:37.508Z,73.82
2022-09-17T18:56:08.327Z,74.23
2022-09-17T18:58:36.156Z,74.02
2022-09-17T19:01:08.834Z,74.04
2022-09-17T19:03:38.391Z,74.39
2022-09-17T19:06:09.053Z,74.36
2022-09-17T19:08:37.267Z,73.83
2022-09-17T19:11:06.127Z,74.28
2022-09-17T19:13:35.771Z,74.45
2022-09-17T19:16:04.635Z,73.97
2022-09-17T19:18:33.336Z,74.24
2022-09-17T19:21:07.417Z,73.67
2022-09-17T19:23:36.034Z,74.62
2022-09-17T19:26:22.929Z,74.03
2022-09-17T19:28:53.050Z,74.03
2022-09-17T19:31:22.389Z,73.99
2022-09-17T19:33:51.431Z,74.04
2022-09-17T19:36:21.883Z,73.97
2022-09-17T19:38:49.994Z,74.00
2022-09-17T19:41:19.664Z,74.96
2022-09-17T19:43:48.152Z,74.79
2022-09-17T19:46:27.497Z,74.59
2022-09-17T19:48:57.523Z,74.57
2022-09-17T19:51:29.531Z,74.23
2022-09-17T19:53:57.658Z,74.58
2022-09-17T19:56:31.787Z,74.79
2022-09-17T19:58:59.561Z,73.86
2022-09-17T20:01:31.464Z,73.90
2022-09-17T20:04:03.407Z,73.88
2022-09-17T20:06:34.363Z,73.84
2022-09-17T20:09:08.699Z,73.04
2022-09-17T20:11:42.425Z,74.55
2022-09-17T20:14:12.441Z,73.81
2022-09-17T20:16:43.394Z,73.10
2022-09-17T20:19:15.392Z,74.05
2022-09-17T20:21:44.929Z,73.82
2022-09-17T20:24:13.419Z,73.34
2022-09-17T20:26:41.809Z,73.90
2022-09-17T20:29:10.816Z,74.12
2022-09-17T20:31:38.937Z,73.44
2022-09-17T20:34:07.127Z,73.79
2022-09-17T20:36:36.176Z,74.30
2022-09-17T20:39:22.495Z,73.70
2022-09-17T20:41:50.797Z,73.58
2022-09-17T20:44:18.820Z,73.66
2022-09-17T20:46:46.923Z,73.96
2022-09-17T20:49:14.848Z,74.20
2022-09-17T20:51:45.897Z,73.75
2022-09-17T20:54:17.808Z,73.96
2022-09-17T20:56:46.482Z,74.29
2022-09-17T20:59:18.790Z,74.33
2022-09-17T21:01:49.785Z,74.81
2022-09-17T21:04:20.021Z,73.46
2022-09-17T21:06:49.342Z,73.66
2022-09-17T21:09:18.757Z,73.55
2022-09-17T21:11:47.953Z,73.53
2022-09-17T21:14:17.431Z,73.58
2022-09-17T21:16:46.467Z,73.80
2022-09-17T21:19:16.052Z,73.97
2022-09-17T21:21:47.911Z,72.49
2022-09-17T21:24:15.701Z,73.40
2022-09-17T21:26:45.851Z,73.15
2022-09-17T21:29:13.825Z,72.97
2022-09-17T21:31:41.916Z,73.19
2022-09-17T21:34:13.175Z,73.14
2022-09-17T21:36:44.848Z,72.67
2022-09-17T21:39:14.770Z,72.98
2022-09-17T21:41:44.527Z,72.90
2022-09-17T21:44:13.373Z,73.27
2022-09-17T21:46:42.889Z,73.63
2022-09-17T21:49:16.396Z,73.99
2022-09-17T21:51:44.724Z,73.62
2022-09-17T21:54:15.701Z,73.81
2022-09-17T21:56:45.889Z,73.63
2022-09-17T21:59:15.540Z,73.45
2022-09-17T22:01:46.725Z,73.50
2022-09-17T22:04:16.907Z,73.41
2022-09-17T22:06:45.873Z,73.40
2022-09-17T22:09:15.904Z,73.22
2022-09-17T22:11:45.572Z,73.23
2022-09-17T22:14:15.705Z,73.18
2022-09-17T22:16:45.844Z,73.20
2022-09-17T22:19:15.781Z,73.35
2022-09-17T22:21:46.635Z,73.01
2022-09-17T22:24:15.941Z,73.29
2022-09-17T22:26:47.706Z,73.74
2022-09-17T22:29:17.299Z,73.29
2022-09-17T22:31:45.734Z,73.48
2022-09-17T22:34:15.701Z,73.18
2022-09-17T22:36:43.557Z,73.39
2022-09-17T22:39:11.440Z,73.48
2022-09-17T22:41:45.080Z,74.21
2022-09-17T22:44:16.578Z,73.69
2022-09-17T22:46:46.633Z,73.86
2022-09-17T22:49:15.094Z,74.20
2022-09-17T22:51:43.621Z,74.11
2022-09-17T22:54:12.748Z,73.99
2022-09-17T22:56:41.253Z,74.51
2022-09-17T22:59:12.376Z,73.88
2022-09-17T23:01:42.208Z,74.63
2022-09-17T23:04:10.685Z,74.63
2022-09-17T23:06:41.938Z,74.43
2022-09-17T23:09:10.482Z,74.54
2022-09-17T23:11:40.461Z,74.49
2022-09-17T23:14:13.186Z,74.77
2022-09-17T23:16:44.541Z,74.91
2022-09-17T23:19:15.474Z,75.58
2022-09-17T23:21:43.815Z,75.44
2022-09-17T23:24:17.999Z,75.64
2022-09-17T23:26:45.898Z,75.74
2022-09-17T23:29:14.032Z,76.20
2022-09-17T23:31:43.385Z,75.67
2022-09-17T23:34:11.510Z,75.62
2022-09-17T23:36:40.608Z,76.07
2022-09-17T23:39:10.187Z,75.68
2022-09-17T23:41:40.563Z,76.15
2022-09-17T23:44:14.975Z,75.96
2022-09-17T23:46:46.786Z,75.21
2022-09-17T23:49:15.342Z,76.13
2022-09-17T23:51:43.515Z,75.51
2022-09-17T23:54:11.582Z,75.62
2022-09-17T23:56:45.208Z,75.73
2022-09-17T23:59:13.147Z,75.52
